Terminal Aerodrome Forecast
Issued by NWS

Home | Current Version | Previous Version | Text Only | Print | Product List | Glossary Off
Versions: 1 2 3 4 5 6 7 8 9 10 11 12 13 14 15

000
FTUS43 KBIS 170500
TAFDIK
TAF
KDIK 170535Z 1706/1806 33012KT P6SM SCT015 BKN025
      TEMPO 1706/1710 SCT030
     FM171500 34008KT P6SM BKN025
     FM171900 02007KT P6SM SCT020
     FM180100 10007KT P6SM SCT030=

USA.gov is the U.S. government's official web portal to all federal, state and local government web resources and services.